createdAt,value
2018-03-02T00:01:51.794Z,44.17
2018-03-02T00:04:23.650Z,46.13
2018-03-02T00:06:56.286Z,46.90
2018-03-02T00:09:26.530Z,46.87
2018-03-02T00:11:57.781Z,49.30
2018-03-02T00:14:28.379Z,47.60
2018-03-02T00:17:02.103Z,45.77
2018-03-02T00:19:32.623Z,46.57
2018-03-02T00:22:01.669Z,46.93
2018-03-02T00:24:30.186Z,46.00
2018-03-02T00:26:58.487Z,47.97
2018-03-02T00:29:27.258Z,49.87
2018-03-02T00:31:56.329Z,49.57
2018-03-02T00:34:24.651Z,49.67
2018-03-02T00:36:53.431Z,46.97
2018-03-02T00:39:22.635Z,46.43
2018-03-02T00:41:51.443Z,48.00
2018-03-02T00:44:19.551Z,49.00
2018-03-02T00:46:47.730Z,46.77
2018-03-02T00:49:16.047Z,45.97
2018-03-02T00:51:45.061Z,43.80
2018-03-02T00:54:13.196Z,46.40
2018-03-02T00:56:41.549Z,48.47
2018-03-02T00:59:09.642Z,44.63
2018-03-02T01:01:37.686Z,44.27
2018-03-02T01:04:05.656Z,48.57
2018-03-02T01:06:33.933Z,47.60
2018-03-02T01:09:02.314Z,50.67
2018-03-02T01:11:32.675Z,47.33
2018-03-02T01:14:01.523Z,47.80
2018-03-02T01:16:29.939Z,47.07
2018-03-02T01:18:59.049Z,46.03
2018-03-02T01:21:28.807Z,45.97
2018-03-02T01:23:57.099Z,47.40
2018-03-02T01:26:25.166Z,48.37
2018-03-02T01:28:53.663Z,46.00
2018-03-02T01:31:22.002Z,49.23
2018-03-02T01:33:50.388Z,46.97
2018-03-02T01:36:18.728Z,48.10
2018-03-02T01:38:47.286Z,45.37
2018-03-02T01:41:16.451Z,48.17
2018-03-02T01:43:44.474Z,49.10
2018-03-02T01:46:12.811Z,47.40
2018-03-02T01:48:41.111Z,45.67
2018-03-02T01:51:10.208Z,43.47
2018-03-02T01:53:39.218Z,43.40
2018-03-02T01:56:08.254Z,40.90
2018-03-02T01:58:36.530Z,44.20
2018-03-02T02:01:04.604Z,41.80
2018-03-02T02:03:32.631Z,41.13
2018-03-02T02:06:01.088Z,45.50
2018-03-02T02:08:30.182Z,41.53
2018-03-02T02:10:59.222Z,43.13
2018-03-02T02:13:27.524Z,42.97
2018-03-02T02:15:55.845Z,41.77
2018-03-02T02:18:23.902Z,43.57
2018-03-02T02:20:53.061Z,45.00
2018-03-02T02:23:21.337Z,43.13
2018-03-02T02:25:49.852Z,44.50
2018-03-02T02:28:18.847Z,44.80
2018-03-02T02:30:47.800Z,48.60
2018-03-02T02:33:15.919Z,44.93
2018-03-02T02:35:44.865Z,43.23
2018-03-02T02:38:12.939Z,45.40
2018-03-02T02:40:41.173Z,43.90
2018-03-02T02:43:09.282Z,44.07
2018-03-02T02:45:37.547Z,45.33
2018-03-02T02:48:05.855Z,42.93
2018-03-02T02:50:33.910Z,44.77
2018-03-02T02:53:02.503Z,43.77
2018-03-02T02:55:30.600Z,41.73
2018-03-02T02:57:59.657Z,42.67
2018-03-02T03:00:27.828Z,49.50
2018-03-02T03:02:56.109Z,41.57
2018-03-02T03:05:24.182Z,44.47
2018-03-02T03:07:52.249Z,44.10
2018-03-02T03:10:20.223Z,44.20
2018-03-02T03:12:48.385Z,46.90
2018-03-02T03:15:16.696Z,42.77
2018-03-02T03:17:44.740Z,47.30
2018-03-02T03:20:13.017Z,43.87
2018-03-02T03:22:41.290Z,42.57
2018-03-02T03:25:09.560Z,46.03
2018-03-02T03:27:37.671Z,43.60
2018-03-02T03:30:06.727Z,44.37
2018-03-02T03:32:34.824Z,43.83
2018-03-02T03:35:03.831Z,43.80
2018-03-02T03:37:33.609Z,41.00
2018-03-02T03:40:01.876Z,44.20
2018-03-02T03:42:30.185Z,48.30
2018-03-02T03:44:58.487Z,48.27
2018-03-02T03:47:27.423Z,47.60
2018-03-02T03:49:55.780Z,44.77
2018-03-02T03:52:23.776Z,47.40
2018-03-02T03:54:51.844Z,45.47
2018-03-02T03:57:20.003Z,48.57
2018-03-02T03:59:48.290Z,42.33
2018-03-02T04:02:16.410Z,47.93
2018-03-02T04:04:45.149Z,46.50
2018-03-02T04:07:13.162Z,47.37
2018-03-02T04:09:42.157Z,46.57
2018-03-02T04:12:11.002Z,45.83
2018-03-02T04:14:38.989Z,45.83
2018-03-02T04:17:07.968Z,44.33
2018-03-02T04:19:37.201Z,44.40
2018-03-02T04:22:06.152Z,44.00
2018-03-02T04:24:34.428Z,46.37
2018-03-02T04:27:02.538Z,46.47
2018-03-02T04:29:31.492Z,48.87
2018-03-02T04:32:00.211Z,46.80
2018-03-02T04:34:29.136Z,43.07
2018-03-02T04:36:58.082Z,43.27
2018-03-02T04:39:26.137Z,44.07
2018-03-02T04:41:54.306Z,47.70
2018-03-02T04:44:23.042Z,43.07
2018-03-02T04:46:51.199Z,42.80
2018-03-02T04:49:20.199Z,43.50
2018-03-02T04:51:49.573Z,46.13
2018-03-02T04:54:18.220Z,42.10
2018-03-02T04:56:46.522Z,46.37
2018-03-02T04:59:14.797Z,39.67
2018-03-02T05:01:42.993Z,44.87
2018-03-02T05:04:11.246Z,44.70
2018-03-02T05:06:39.561Z,44.97
2018-03-02T05:09:08.678Z,45.30
2018-03-02T05:11:37.650Z,43.13
2018-03-02T05:14:05.781Z,44.33
2018-03-02T05:16:34.306Z,46.97
2018-03-02T05:19:03.015Z,45.97
2018-03-02T05:21:31.122Z,44.80
2018-03-02T05:23:59.702Z,45.03
2018-03-02T05:26:28.256Z,44.07
2018-03-02T05:28:57.187Z,46.50
2018-03-02T05:31:26.321Z,43.87
2018-03-02T05:33:54.546Z,45.70
2018-03-02T05:36:22.623Z,47.57
2018-03-02T05:38:50.789Z,41.27
2018-03-02T05:41:19.086Z,46.37
2018-03-02T05:43:47.469Z,46.10
2018-03-02T05:46:15.621Z,41.50
2018-03-02T05:48:43.569Z,42.43
2018-03-02T05:51:11.556Z,44.73
2018-03-02T05:53:40.174Z,45.40
2018-03-02T05:56:09.397Z,44.10
2018-03-02T05:58:37.789Z,47.17
2018-03-02T06:01:05.889Z,47.83
2018-03-02T06:03:33.857Z,47.60
2018-03-02T06:06:02.028Z,45.83
2018-03-02T06:08:30.562Z,46.30
2018-03-02T06:10:59.436Z,44.07
2018-03-02T06:13:28.000Z,44.50
2018-03-02T06:15:56.736Z,45.73
2018-03-02T06:18:26.175Z,43.20
2018-03-02T06:20:54.498Z,44.53
2018-03-02T06:23:23.527Z,44.87
2018-03-02T06:25:51.564Z,41.83
2018-03-02T06:28:20.327Z,45.10
2018-03-02T06:30:48.700Z,44.03
2018-03-02T06:33:16.770Z,44.30
2018-03-02T06:35:44.679Z,44.53
2018-03-02T06:38:12.943Z,42.93
2018-03-02T06:40:41.678Z,44.47
2018-03-02T06:43:10.301Z,51.10
2018-03-02T06:45:38.219Z,48.00
2018-03-02T06:48:06.508Z,46.03
2018-03-02T06:50:35.775Z,46.70
2018-03-02T06:53:03.586Z,46.13
2018-03-02T06:55:31.719Z,45.10
2018-03-02T06:57:59.837Z,45.03
2018-03-02T07:00:29.042Z,45.87
2018-03-02T07:02:57.292Z,45.27
2018-03-02T07:05:25.175Z,45.27
2018-03-02T07:07:54.677Z,44.67
2018-03-02T07:10:37.192Z,40.37
2018-03-02T07:13:05.153Z,43.53
2018-03-02T07:15:33.023Z,42.07
2018-03-02T07:18:01.095Z,43.00
2018-03-02T07:20:29.477Z,43.07
2018-03-02T07:22:57.656Z,42.43
2018-03-02T07:25:26.868Z,41.53
2018-03-02T07:27:55.470Z,42.77
2018-03-02T07:30:24.130Z,44.13
2018-03-02T07:32:53.085Z,41.33
2018-03-02T07:35:21.054Z,42.33
2018-03-02T07:37:49.031Z,45.40
2018-03-02T07:40:16.918Z,75.30
2018-03-02T07:42:45.039Z,62.70
2018-03-02T07:45:12.952Z,47.60
2018-03-02T07:47:40.950Z,46.57
2018-03-02T07:50:09.708Z,50.03
2018-03-02T07:52:37.674Z,57.63
2018-03-02T07:55:05.811Z,45.43
2018-03-02T07:57:33.925Z,47.97
2018-03-02T08:00:03.327Z,45.03
2018-03-02T08:02:32.074Z,47.10
2018-03-02T08:05:00.209Z,60.10
2018-03-02T08:07:29.152Z,49.80
2018-03-02T08:09:57.094Z,48.43
2018-03-02T08:12:24.937Z,81.73
2018-03-02T08:14:53.695Z,51.53
2018-03-02T08:17:21.778Z,48.57
2018-03-02T08:19:50.449Z,47.20
2018-03-02T08:22:18.575Z,47.10
2018-03-02T08:24:46.486Z,52.23
2018-03-02T08:27:14.385Z,47.83
2018-03-02T08:29:43.056Z,46.10
2018-03-02T08:32:11.623Z,48.93
2018-03-02T08:34:39.526Z,48.80
2018-03-02T08:37:08.582Z,50.70
2018-03-02T08:39:36.735Z,47.83
2018-03-02T08:42:04.676Z,50.70
2018-03-02T08:47:07.623Z,51.50
2018-03-02T08:49:35.679Z,49.63
2018-03-02T08:52:03.681Z,48.63
2018-03-02T08:54:31.618Z,49.70
2018-03-02T08:56:59.609Z,50.80
2018-03-02T08:59:27.851Z,50.50
2018-03-02T09:01:55.666Z,49.30
2018-03-02T09:04:24.620Z,47.47
2018-03-02T09:06:52.585Z,47.93
2018-03-02T09:09:20.492Z,48.37
2018-03-02T09:11:50.035Z,49.90
2018-03-02T09:14:18.254Z,51.30
2018-03-02T09:16:46.134Z,49.60
2018-03-02T09:19:14.273Z,47.07
2018-03-02T09:21:42.175Z,46.53
2018-03-02T09:24:10.552Z,46.30
2018-03-02T09:26:38.726Z,45.87
2018-03-02T09:29:07.588Z,47.20
2018-03-02T09:31:35.484Z,47.00
2018-03-02T09:34:05.058Z,48.47
2018-03-02T09:36:33.163Z,46.87
2018-03-02T09:39:02.145Z,44.70
2018-03-02T09:41:30.017Z,45.00
2018-03-02T09:43:58.186Z,48.70
2018-03-02T09:46:26.158Z,48.73
2018-03-02T09:48:54.021Z,47.20
2018-03-02T09:51:21.900Z,47.10
2018-03-02T09:53:49.837Z,47.67
2018-03-02T09:56:17.724Z,45.90
2018-03-02T09:58:45.587Z,49.07
2018-03-02T10:01:13.572Z,46.60
2018-03-02T10:03:41.399Z,49.37
2018-03-02T10:06:09.807Z,46.53
2018-03-02T10:08:38.287Z,48.60
2018-03-02T10:11:06.548Z,47.00
2018-03-02T10:13:34.701Z,46.53
2018-03-02T10:16:02.682Z,48.30
2018-03-02T10:18:30.674Z,45.70
2018-03-02T10:20:58.853Z,46.70
2018-03-02T10:23:27.519Z,48.77
2018-03-02T10:25:55.440Z,48.17
2018-03-02T10:28:23.364Z,47.70
2018-03-02T10:30:51.624Z,46.77
2018-03-02T10:33:19.533Z,49.17
2018-03-02T10:35:48.211Z,47.20
2018-03-02T10:38:16.488Z,47.80
2018-03-02T10:40:44.981Z,50.13
2018-03-02T10:43:13.582Z,51.20
2018-03-02T10:45:41.417Z,48.27
2018-03-02T10:48:10.101Z,50.57
2018-03-02T10:50:38.084Z,50.87
2018-03-02T10:53:07.768Z,46.10
2018-03-02T10:55:35.835Z,46.20
2018-03-02T10:58:03.833Z,49.47
2018-03-02T11:00:38.305Z,46.80
2018-03-02T11:03:06.487Z,50.73
2018-03-02T11:05:40.207Z,42.83
2018-03-02T11:08:08.079Z,49.80
2018-03-02T11:10:36.430Z,51.80
2018-03-02T11:13:04.935Z,46.73
2018-03-02T11:15:34.745Z,51.40
2018-03-02T11:18:03.615Z,43.53
2018-03-02T11:20:31.712Z,49.00
2018-03-02T11:23:00.369Z,50.07
2018-03-02T11:25:29.149Z,48.43
2018-03-02T11:27:59.283Z,49.03
2018-03-02T11:30:28.068Z,47.80
2018-03-02T11:32:56.491Z,50.27
2018-03-02T11:35:25.715Z,47.30
2018-03-02T11:37:53.720Z,43.87
2018-03-02T11:40:21.888Z,47.13
2018-03-02T11:42:49.965Z,51.10
2018-03-02T11:45:18.112Z,49.07
2018-03-02T11:47:46.068Z,44.37
2018-03-02T11:50:14.273Z,51.30
2018-03-02T11:52:42.448Z,48.70
2018-03-02T11:55:10.421Z,52.50
2018-03-02T11:57:38.517Z,48.20
2018-03-02T12:00:07.156Z,51.23
2018-03-02T12:02:35.345Z,51.27
2018-03-02T12:05:03.324Z,51.30
2018-03-02T12:07:31.394Z,50.50
2018-03-02T12:09:59.669Z,48.93
2018-03-02T12:12:28.082Z,52.63
2018-03-02T12:14:56.088Z,49.60
2018-03-02T12:17:32.190Z,52.83
2018-03-02T12:20:00.245Z,48.80
2018-03-02T12:22:29.580Z,50.00
2018-03-02T12:24:57.717Z,48.27
2018-03-02T12:27:25.686Z,48.67
2018-03-02T12:29:53.804Z,48.27
2018-03-02T12:32:23.472Z,49.80
2018-03-02T12:34:51.672Z,45.97
2018-03-02T12:37:19.745Z,47.60
2018-03-02T12:39:47.728Z,46.33
2018-03-02T12:42:16.569Z,48.73
2018-03-02T12:44:45.696Z,49.37
2018-03-02T12:47:13.736Z,46.80
2018-03-02T12:49:41.633Z,50.57
2018-03-02T12:52:10.391Z,44.77
2018-03-02T12:54:38.327Z,50.20
2018-03-02T12:57:06.434Z,52.07
2018-03-02T12:59:34.712Z,44.27
2018-03-02T13:02:02.781Z,51.23
2018-03-02T13:04:31.358Z,49.57
2018-03-02T13:06:59.487Z,50.30
2018-03-02T13:09:28.481Z,49.90
2018-03-02T13:11:56.787Z,47.20
2018-03-02T13:14:24.768Z,50.27
2018-03-02T13:16:53.148Z,53.47
2018-03-02T13:19:21.660Z,50.47
2018-03-02T13:21:49.904Z,52.73
2018-03-02T13:24:17.901Z,49.00
2018-03-02T13:26:58.234Z,51.03
2018-03-02T13:29:27.429Z,53.17
2018-03-02T13:31:55.351Z,51.10
2018-03-02T13:34:38.138Z,50.13
2018-03-02T13:37:06.415Z,52.23
2018-03-02T13:39:46.235Z,49.77
2018-03-02T13:42:14.133Z,52.27
2018-03-02T13:44:42.193Z,48.60
2018-03-02T13:47:10.269Z,49.40
2018-03-02T13:49:50.595Z,53.30
2018-03-02T13:52:18.799Z,53.13
2018-03-02T13:54:47.047Z,54.47
2018-03-02T13:57:26.890Z,55.20
2018-03-02T13:59:54.827Z,56.23
2018-03-02T14:02:35.773Z,53.80
2018-03-02T14:05:03.813Z,56.17
2018-03-02T14:07:31.991Z,53.93
2018-03-02T14:10:00.057Z,55.10
2018-03-02T14:12:28.365Z,56.23
2018-03-02T14:14:56.223Z,60.03
2018-03-02T14:17:24.169Z,54.30
2018-03-02T14:19:52.649Z,57.60
2018-03-02T14:22:20.654Z,60.43
2018-03-02T14:24:48.617Z,58.87
2018-03-02T14:27:17.924Z,59.10
2018-03-02T14:29:45.961Z,59.20
2018-03-02T14:32:14.067Z,59.10
2018-03-02T14:34:42.906Z,61.47
2018-03-02T14:37:11.134Z,61.57
2018-03-02T14:39:39.708Z,65.77
2018-03-02T14:42:08.482Z,62.60
2018-03-02T14:44:36.670Z,60.80
2018-03-02T14:47:04.541Z,62.30
2018-03-02T14:49:32.575Z,68.57
2018-03-02T14:52:01.490Z,70.43
2018-03-02T14:54:29.445Z,65.60
2018-03-02T14:56:57.494Z,65.47
2018-03-02T14:59:25.497Z,69.93
2018-03-02T15:01:53.658Z,61.77
2018-03-02T15:04:21.535Z,77.30
2018-03-02T15:06:49.379Z,70.17
2018-03-02T15:09:17.251Z,72.97
2018-03-02T15:11:45.621Z,78.10
2018-03-02T15:14:13.595Z,76.37
2018-03-02T15:16:41.488Z,79.10
2018-03-02T15:19:09.659Z,76.80
2018-03-02T15:21:37.599Z,67.40
2018-03-02T15:24:05.587Z,74.23
2018-03-02T15:26:33.563Z,67.67
2018-03-02T15:29:01.644Z,82.87
2018-03-02T15:31:29.808Z,67.70
2018-03-02T15:33:58.285Z,73.10
2018-03-02T15:36:26.157Z,69.87
2018-03-02T15:38:54.156Z,64.60
2018-03-02T15:41:23.189Z,74.83
2018-03-02T15:43:51.060Z,68.87
2018-03-02T15:46:19.061Z,149.13
2018-03-02T15:48:46.898Z,86.17
2018-03-02T15:51:15.076Z,82.63
2018-03-02T15:53:43.018Z,343.47
2018-03-02T15:56:11.135Z,73.03
2018-03-02T15:58:40.949Z,102.07
2018-03-02T16:01:09.880Z,485.93
2018-03-02T16:03:37.904Z,600.23
2018-03-02T16:06:07.509Z,103.60
2018-03-02T16:08:35.476Z,75.57
2018-03-02T16:11:04.555Z,117.30
2018-03-02T16:13:32.448Z,91.43
2018-03-02T16:16:00.493Z,86.27
2018-03-02T16:18:28.938Z,87.70
2018-03-02T16:20:57.028Z,84.90
2018-03-02T16:23:25.050Z,84.33
2018-03-02T16:25:53.641Z,85.10
2018-03-02T16:28:21.474Z,69.77
2018-03-02T16:30:49.428Z,76.83
2018-03-02T16:33:17.601Z,79.33
2018-03-02T16:35:45.469Z,76.00
2018-03-02T16:38:13.543Z,80.50
2018-03-02T16:40:42.464Z,72.87
2018-03-02T16:43:10.500Z,72.53
2018-03-02T16:45:38.514Z,78.80
2018-03-02T16:48:07.170Z,83.20
2018-03-02T16:50:35.124Z,75.43
2018-03-02T16:53:03.192Z,83.00
2018-03-02T16:55:31.201Z,84.37
2018-03-02T16:57:59.880Z,95.30
2018-03-02T17:00:28.717Z,92.70
2018-03-02T17:02:56.711Z,91.00
2018-03-02T17:05:25.012Z,88.13
2018-03-02T17:07:52.957Z,102.90
2018-03-02T17:10:21.001Z,92.23
2018-03-02T17:12:49.201Z,82.87
2018-03-02T17:15:17.894Z,83.47
2018-03-02T17:17:45.778Z,82.50
2018-03-02T17:20:13.715Z,95.17
2018-03-02T17:22:41.685Z,85.00
2018-03-02T17:25:09.893Z,87.27
2018-03-02T17:27:38.785Z,89.87
2018-03-02T17:30:06.945Z,92.27
2018-03-02T17:32:34.994Z,91.80
2018-03-02T17:35:03.070Z,94.83
2018-03-02T17:37:31.153Z,92.90
2018-03-02T17:39:59.215Z,87.93
2018-03-02T17:42:27.495Z,89.97
2018-03-02T17:44:55.587Z,92.03
2018-03-02T17:47:23.561Z,92.47
2018-03-02T17:49:51.823Z,220.63
2018-03-02T17:52:20.712Z,101.07
2018-03-02T17:54:49.078Z,92.20
2018-03-02T17:57:17.343Z,90.27
2018-03-02T17:59:45.475Z,97.47
2018-03-02T18:02:13.810Z,94.13
2018-03-02T18:04:41.912Z,134.50
2018-03-02T18:07:10.992Z,94.07
2018-03-02T18:09:39.066Z,87.60
2018-03-02T18:12:07.190Z,92.87
2018-03-02T18:14:35.390Z,156.97
2018-03-02T18:17:03.268Z,94.27
2018-03-02T18:19:31.537Z,95.77
2018-03-02T18:21:59.620Z,89.97
2018-03-02T18:24:27.555Z,90.40
2018-03-02T18:26:55.768Z,88.97
2018-03-02T18:29:23.904Z,92.73
2018-03-02T18:31:52.093Z,97.90
2018-03-02T18:34:20.552Z,89.70
2018-03-02T18:36:48.658Z,89.57
2018-03-02T18:39:16.838Z,89.70
2018-03-02T18:41:44.915Z,92.50
2018-03-02T18:44:13.971Z,91.47
2018-03-02T18:46:42.040Z,87.03
2018-03-02T18:49:10.317Z,93.10
2018-03-02T18:51:40.374Z,95.40
2018-03-02T18:54:09.467Z,91.57
2018-03-02T18:56:38.842Z,92.20
2018-03-02T18:59:07.083Z,90.73
2018-03-02T19:01:35.110Z,93.57
2018-03-02T19:04:04.011Z,97.87
2018-03-02T19:06:32.788Z,94.83
2018-03-02T19:09:00.798Z,105.37
2018-03-02T19:11:29.443Z,97.07
2018-03-02T19:13:58.734Z,96.20
2018-03-02T19:16:27.199Z,96.53
2018-03-02T19:18:55.470Z,90.10
2018-03-02T19:21:23.942Z,94.93
2018-03-02T19:23:52.053Z,94.07
2018-03-02T19:26:20.200Z,95.10
2018-03-02T19:28:49.283Z,94.60
2018-03-02T19:31:17.579Z,92.40
2018-03-02T19:33:45.809Z,92.60
2018-03-02T19:36:14.149Z,97.30
2018-03-02T19:38:43.775Z,91.60
2018-03-02T19:41:11.818Z,96.13
2018-03-02T19:43:40.044Z,90.63
2018-03-02T19:46:08.751Z,96.93
2018-03-02T19:48:38.166Z,96.80
2018-03-02T19:51:07.676Z,98.37
2018-03-02T19:53:36.763Z,92.87
2018-03-02T19:56:05.139Z,96.60
2018-03-02T19:58:34.131Z,94.83
2018-03-02T20:01:02.413Z,96.73
2018-03-02T20:03:31.597Z,95.97
2018-03-02T20:06:00.685Z,98.10
2018-03-02T20:08:32.527Z,99.60
2018-03-02T20:11:01.450Z,97.13
2018-03-02T20:13:30.444Z,99.73
2018-03-02T20:15:59.223Z,98.13
2018-03-02T20:18:29.142Z,99.43
2018-03-02T20:20:58.324Z,101.17
2018-03-02T20:23:27.339Z,100.63
2018-03-02T20:25:56.721Z,102.57
2018-03-02T20:28:26.104Z,100.97
2018-03-02T20:30:54.620Z,97.60
2018-03-02T20:33:24.232Z,99.93
2018-03-02T20:35:53.709Z,97.90
2018-03-02T20:38:22.998Z,101.37
2018-03-02T20:40:51.176Z,100.10
2018-03-02T20:43:19.477Z,95.47
2018-03-02T20:45:47.788Z,99.53
2018-03-02T20:48:17.101Z,96.00
2018-03-02T20:50:46.702Z,98.23
2018-03-02T20:53:15.476Z,101.63
2018-03-02T20:55:43.665Z,95.17
2018-03-02T20:58:13.241Z,96.83
2018-03-02T21:00:41.460Z,98.33
2018-03-02T21:03:11.063Z,92.13
2018-03-02T21:05:39.466Z,93.17
2018-03-02T21:08:07.480Z,97.20
2018-03-02T21:10:35.957Z,91.70
2018-03-02T21:13:05.920Z,92.37
2018-03-02T21:15:33.858Z,90.87
2018-03-02T21:18:02.757Z,94.27
2018-03-02T21:20:31.931Z,93.03
2018-03-02T21:23:00.128Z,96.23
2018-03-02T21:25:28.868Z,97.00
2018-03-02T21:27:57.155Z,96.23
2018-03-02T21:30:25.217Z,97.13
2018-03-02T21:32:53.063Z,98.37
2018-03-02T21:35:22.177Z,99.97
2018-03-02T21:37:51.071Z,98.80
2018-03-02T21:40:19.843Z,98.93
2018-03-02T21:42:47.830Z,99.10
2018-03-02T21:45:15.784Z,105.50
2018-03-02T21:47:43.692Z,105.47
2018-03-02T21:50:12.656Z,113.43
2018-03-02T21:52:41.264Z,105.80
2018-03-02T21:55:10.156Z,106.53
2018-03-02T21:57:38.233Z,102.80
2018-03-02T22:00:07.187Z,110.07
2018-03-02T22:02:35.261Z,109.90
2018-03-02T22:05:03.875Z,102.53
2018-03-02T22:07:31.948Z,109.80
2018-03-02T22:10:00.727Z,109.33
2018-03-02T22:12:28.692Z,105.80
2018-03-02T22:14:56.850Z,99.10
2018-03-02T22:17:24.667Z,98.97
2018-03-02T22:19:53.466Z,105.23
2018-03-02T22:22:21.488Z,104.30
2018-03-02T22:24:49.457Z,102.23
2018-03-02T22:27:17.407Z,103.97
2018-03-02T22:29:45.296Z,112.47
2018-03-02T22:32:13.153Z,97.80
2018-03-02T22:34:41.026Z,109.90
2018-03-02T22:37:09.245Z,110.03
2018-03-02T22:39:38.120Z,111.90
2018-03-02T22:42:06.031Z,112.40
2018-03-02T22:44:34.795Z,113.97
2018-03-02T22:47:02.856Z,111.47
2018-03-02T22:49:30.983Z,111.33
2018-03-02T22:51:59.057Z,115.50
2018-03-02T22:54:27.375Z,101.23
2018-03-02T22:56:55.389Z,110.50
2018-03-02T22:59:23.346Z,106.03
2018-03-02T23:01:51.624Z,106.37
2018-03-02T23:04:19.619Z,104.93
2018-03-02T23:06:47.563Z,109.97
2018-03-02T23:09:15.529Z,116.27
2018-03-02T23:11:43.443Z,110.40
2018-03-02T23:14:12.186Z,113.63
2018-03-02T23:16:40.078Z,112.70
2018-03-02T23:19:08.220Z,117.30
2018-03-02T23:21:36.091Z,113.23
2018-03-02T23:24:04.095Z,112.97
2018-03-02T23:26:32.667Z,114.30
2018-03-02T23:29:00.755Z,114.10
2018-03-02T23:31:29.428Z,116.03
2018-03-02T23:33:57.662Z,109.57
2018-03-02T23:36:25.623Z,111.57
2018-03-02T23:38:53.508Z,103.13
2018-03-02T23:41:21.501Z,106.67
2018-03-02T23:43:49.408Z,106.70
2018-03-02T23:46:17.926Z,104.53
2018-03-02T23:48:46.004Z,100.80
2018-03-02T23:51:14.156Z,100.30
2018-03-02T23:53:42.079Z,102.80
2018-03-02T23:56:10.949Z,94.37
2018-03-02T23:58:38.820Z,101.50
